If you wish to contribute or participate in the discussions about articles you are invited to join SKYbrary as a registered user

 Actions

Badajoz Airport

From SKYbrary Wiki

LEBZ
Airport
ICAO: LEBZ – IATA: BJZ
Summary
Name Badajoz Airport
Region Europe
Territory Spain ES.gif
Location , Extremadura
Serving Badajoz
Elevation 185.623 m
609 ft
609 ft185.623 m
Type medium airport
Coordinates 38° 53' 28.50" N, 6° 49' 16.80" W
Runways
Designator Length Width Surface ROPS
13/31 2850 m9,350.394 ft
60 m196.85 ft
ASP yes/yes


METAR
Observation LEBZ 171600Z 21009KT 9999 -RA FEW045 14/11 Q1009
Station Badajoz / Talavera La Real
Date/Time 17 April 2019 16:00:00
Wind direction 210°
Wind speed 09 kts
Lowest cloud amount few clouds
Temperature 14°C
Dew point 11°C
Humidity 82%
QNH 1009 hPa
Weather condition light rain